PWSweather.com
Personal Weather Stations
Station Observations
KTXROWLE6
Ravens Nest, Rowlett, TX 75089

Ravens NestRowlett, TX 75089

Lat: 32.93105, Lon: -96.57368

Elevation: 556

Station Type: Davis Vantage Pro2 6152

http://rowlett.ws

High Low Average
Temperature 93.9°F34.4°C 67.6°F19.8°C 83.4°F28.6°C
Dew Point 77.2°F25.1°C 63.4°F17.4°C 72.6°F22.6°C
Winds 8.4 mph 13.5 kmh 0.2 mph 0.3 kmh 3.0 mph S4.8 kmh S
Wind Gusts 16.0 mph25.7 kmh 2.0 mph3.2 kmh 9.0 mph14.5 kmh
Humidity 91% 55% 71%
Pressure 29.91 in1012.9 mb 29.66 in1004.4 mb -
Precipitation 0.90 in22.9 mm - -
Hour Temp Dew Point Humidity Winds Wind Gusts Pressure Precip Precip Rate Daily Precip Total
12:00 AM 81.4°F27.4°C 73.9°F23.3°C 78% 2.3 mph S3.7 kmh S 9.0 mph14.5 kmh 29.85 in1010.8 mb 0.00 in0.0 mm 0.00 in0.0 mm 0.00 in0.0 mm
12:05 AM 81.3°F27.4°C 73.8°F23.2°C 78% 1.9 mph SE3.1 kmh SE 7.0 mph11.3 kmh 29.85 in1010.8 mb 0.00 in0.0 mm 0.00 in0.0 mm 0.00 in0.0 mm
12:10 AM 81.3°F27.4°C 73.8°F23.2°C 78% 3.4 mph SSE5.5 kmh SSE 8.0 mph12.9 kmh 29.85 in1010.8 mb 0.00 in0.0 mm 0.00 in0.0 mm 0.00 in0.0 mm
12:15 AM 81.3°F27.4°C 73.8°F23.2°C 78% 2.4 mph SSE3.9 kmh SSE 8.0 mph12.9 kmh 29.85 in1010.8 mb 0.00 in0.0 mm 0.00 in0.0 mm 0.00 in0.0 mm
12:20 AM 81.2°F27.3°C 73.7°F23.2°C 78% 2.8 mph SE4.5 kmh SE 9.0 mph14.5 kmh 29.85 in1010.8 mb 0.00 in0.0 mm 0.00 in0.0 mm 0.00 in0.0 mm
12:25 AM 81.1°F27.3°C 74.0°F23.3°C 79% 2.6 mph SE4.2 kmh SE 9.0 mph14.5 kmh 29.85 in1010.8 mb 0.00 in0.0 mm 0.00 in0.0 mm 0.00 in0.0 mm
12:30 AM 81.1°F27.3°C 74.0°F23.3°C 79% 2.2 mph S3.5 kmh S 8.0 mph12.9 kmh 29.85 in1010.8 mb 0.00 in0.0 mm 0.00 in0.0 mm 0.00 in0.0 mm
12:35 AM 81.0°F27.2°C 73.9°F23.3°C 79% 2.4 mph SSE3.9 kmh SSE 11.0 mph17.7 kmh 29.85 in1010.8 mb 0.00 in0.0 mm 0.00 in0.0 mm 0.00 in0.0 mm
12:40 AM 81.0°F27.2°C 73.9°F23.3°C 79% 2.8 mph SSE4.5 kmh SSE 11.0 mph17.7 kmh 29.84 in1010.5 mb 0.00 in0.0 mm 0.00 in0.0 mm 0.00 in0.0 mm
12:45 AM 81.0°F27.2°C 73.9°F23.3°C 79% 2.5 mph SE4.0 kmh SE 8.0 mph12.9 kmh 29.84 in1010.5 mb 0.00 in0.0 mm 0.00 in0.0 mm 0.00 in0.0 mm
12:50 AM 80.8°F27.1°C 73.7°F23.2°C 79% 1.8 mph SE2.9 kmh SE 8.0 mph12.9 kmh 29.84 in1010.5 mb 0.00 in0.0 mm 0.00 in0.0 mm 0.00 in0.0 mm
12:55 AM 80.8°F27.1°C 74.0°F23.3°C 80% 2.1 mph SE3.4 kmh SE 8.0 mph12.9 kmh 29.84 in1010.5 mb 0.00 in0.0 mm 0.00 in0.0 mm 0.00 in0.0 mm
01:00 AM 80.8°F27.1°C 74.0°F23.3°C 80% 1.7 mph SSE2.7 kmh SSE 10.0 mph16.1 kmh 29.84 in1010.5 mb 0.00 in0.0 mm 0.00 in0.0 mm 0.00 in0.0 mm
01:05 AM 80.8°F27.1°C 74.0°F23.3°C 80% 2.1 mph S3.4 kmh S 10.0 mph16.1 kmh 29.84 in1010.5 mb 0.00 in0.0 mm 0.00 in0.0 mm 0.00 in0.0 mm
01:10 AM 80.8°F27.1°C 74.0°F23.3°C 80% 2.4 mph S3.9 kmh S 7.0 mph11.3 kmh 29.84 in1010.5 mb 0.00 in0.0 mm 0.00 in0.0 mm 0.00 in0.0 mm
01:15 AM 80.6°F27.0°C 73.8°F23.2°C 80% 2.1 mph SE3.4 kmh SE 7.0 mph11.3 kmh 29.83 in1010.2 mb 0.00 in0.0 mm 0.00 in0.0 mm 0.00 in0.0 mm
01:20 AM 80.6°F27.0°C 73.8°F23.2°C 80% 2.1 mph SSE3.4 kmh SSE 10.0 mph16.1 kmh 29.84 in1010.5 mb 0.00 in0.0 mm 0.00 in0.0 mm 0.00 in0.0 mm
01:25 AM 80.6°F27.0°C 73.8°F23.2°C 80% 2.2 mph S3.5 kmh S 10.0 mph16.1 kmh 29.83 in1010.2 mb 0.00 in0.0 mm 0.00 in0.0 mm 0.00 in0.0 mm
01:30 AM 80.7°F27.1°C 73.9°F23.3°C 80% 2.3 mph SSE3.7 kmh SSE 10.0 mph16.1 kmh 29.83 in1010.2 mb 0.00 in0.0 mm 0.00 in0.0 mm 0.00 in0.0 mm
01:35 AM 80.7°F27.1°C 73.6°F23.1°C 79% 2.3 mph SE3.7 kmh SE 7.0 mph11.3 kmh 29.83 in1010.2 mb 0.00 in0.0 mm 0.00 in0.0 mm 0.00 in0.0 mm
01:40 AM 80.7°F27.1°C 73.6°F23.1°C 79% 1.8 mph S2.9 kmh S 6.0 mph9.7 kmh 29.83 in1010.2 mb 0.00 in0.0 mm 0.00 in0.0 mm 0.00 in0.0 mm
01:45 AM 80.7°F27.1°C 73.9°F23.3°C 80% 2.7 mph S4.3 kmh S 6.0 mph9.7 kmh 29.83 in1010.2 mb 0.00 in0.0 mm 0.00 in0.0 mm 0.00 in0.0 mm
01:50 AM 80.7°F27.1°C 73.6°F23.1°C 79% 2.1 mph SSE3.4 kmh SSE 6.0 mph9.7 kmh 29.83 in1010.2 mb 0.00 in0.0 mm 0.00 in0.0 mm 0.00 in0.0 mm
01:55 AM 80.8°F27.1°C 73.7°F23.2°C 79% 1.9 mph S3.1 kmh S 8.0 mph12.9 kmh 29.83 in1010.2 mb 0.00 in0.0 mm 0.00 in0.0 mm 0.00 in0.0 mm
02:00 AM 80.8°F27.1°C 73.7°F23.2°C 79% 1.7 mph SSE2.7 kmh SSE 8.0 mph12.9 kmh 29.83 in1010.2 mb 0.00 in0.0 mm 0.00 in0.0 mm 0.00 in0.0 mm
02:05 AM 80.9°F27.2°C 73.8°F23.2°C 79% 2.7 mph SSE4.3 kmh SSE 8.0 mph12.9 kmh 29.83 in1010.2 mb 0.00 in0.0 mm 0.00 in0.0 mm 0.00 in0.0 mm
02:10 AM 81.0°F27.2°C 73.9°F23.3°C 79% 2.2 mph S3.5 kmh S 8.0 mph12.9 kmh 29.82 in1009.8 mb 0.00 in0.0 mm 0.00 in0.0 mm 0.00 in0.0 mm
02:15 AM 81.0°F27.2°C 73.9°F23.3°C 79% 2.4 mph SE3.9 kmh SE 7.0 mph11.3 kmh 29.82 in1009.8 mb 0.00 in0.0 mm 0.00 in0.0 mm 0.00 in0.0 mm
02:20 AM 81.1°F27.3°C 74.0°F23.3°C 79% 2.7 mph S4.3 kmh S 9.0 mph14.5 kmh 29.82 in1009.8 mb 0.00 in0.0 mm 0.00 in0.0 mm 0.00 in0.0 mm
02:25 AM 81.2°F27.3°C 74.0°F23.3°C 79% 2.4 mph SSE3.9 kmh SSE 9.0 mph14.5 kmh 29.82 in1009.8 mb 0.00 in0.0 mm 0.00 in0.0 mm 0.00 in0.0 mm
02:30 AM 81.2°F27.3°C 74.0°F23.3°C 79% 2.3 mph SE3.7 kmh SE 8.0 mph12.9 kmh 29.82 in1009.8 mb 0.00 in0.0 mm 0.00 in0.0 mm 0.00 in0.0 mm
02:35 AM 81.2°F27.3°C 74.0°F23.3°C 79% 2.2 mph SE3.5 kmh SE 8.0 mph12.9 kmh 29.82 in1009.8 mb 0.00 in0.0 mm 0.00 in0.0 mm 0.00 in0.0 mm
02:40 AM 81.2°F27.3°C 74.0°F23.3°C 79% 3.3 mph SE5.3 kmh SE 11.0 mph17.7 kmh 29.82 in1009.8 mb 0.00 in0.0 mm 0.00 in0.0 mm 0.00 in0.0 mm
02:45 AM 81.1°F27.3°C 73.6°F23.1°C 78% 3.0 mph SSE4.8 kmh SSE 12.0 mph19.3 kmh 29.82 in1009.8 mb 0.00 in0.0 mm 0.00 in0.0 mm 0.00 in0.0 mm
02:50 AM 81.1°F27.3°C 73.6°F23.1°C 78% 3.0 mph SE4.8 kmh SE 12.0 mph19.3 kmh 29.82 in1009.8 mb 0.00 in0.0 mm 0.00 in0.0 mm 0.00 in0.0 mm
02:55 AM 81.0°F27.2°C 73.9°F23.3°C 79% 2.1 mph SE3.4 kmh SE 11.0 mph17.7 kmh 29.82 in1009.8 mb 0.00 in0.0 mm 0.00 in0.0 mm 0.00 in0.0 mm
03:00 AM 81.0°F27.2°C 73.9°F23.3°C 79% 2.8 mph SE4.5 kmh SE 8.0 mph12.9 kmh 29.82 in1009.8 mb 0.00 in0.0 mm 0.00 in0.0 mm 0.00 in0.0 mm
03:05 AM 80.9°F27.2°C 73.8°F23.2°C 79% 2.0 mph SSE3.2 kmh SSE 8.0 mph12.9 kmh 29.82 in1009.8 mb 0.00 in0.0 mm 0.00 in0.0 mm 0.00 in0.0 mm
03:10 AM 80.9°F27.2°C 73.8°F23.2°C 79% 2.4 mph SSE3.9 kmh SSE 7.0 mph11.3 kmh 29.82 in1009.8 mb 0.00 in0.0 mm 0.00 in0.0 mm 0.00 in0.0 mm
03:15 AM 80.9°F27.2°C 73.8°F23.2°C 79% 3.0 mph SE4.8 kmh SE 16.0 mph25.7 kmh 29.82 in1009.8 mb 0.00 in0.0 mm 0.00 in0.0 mm 0.00 in0.0 mm
03:20 AM 80.9°F27.2°C 73.4°F23.0°C 78% 2.3 mph S3.7 kmh S 16.0 mph25.7 kmh 29.82 in1009.8 mb 0.00 in0.0 mm 0.00 in0.0 mm 0.00 in0.0 mm
03:25 AM 80.8°F27.1°C 73.7°F23.2°C 79% 1.7 mph SE2.7 kmh SE 6.0 mph9.7 kmh 29.81 in1009.5 mb 0.00 in0.0 mm 0.00 in0.0 mm 0.00 in0.0 mm
03:30 AM 80.7°F27.1°C 73.2°F22.9°C 78% 2.2 mph S3.5 kmh S 5.0 mph8.0 kmh 29.81 in1009.5 mb 0.00 in0.0 mm 0.00 in0.0 mm 0.00 in0.0 mm
03:35 AM 80.8°F27.1°C 73.3°F22.9°C 78% 2.0 mph S3.2 kmh S 6.0 mph9.7 kmh 29.82 in1009.8 mb 0.00 in0.0 mm 0.00 in0.0 mm 0.00 in0.0 mm
03:40 AM 80.8°F27.1°C 73.3°F22.9°C 78% 1.9 mph S3.1 kmh S 6.0 mph9.7 kmh 29.81 in1009.5 mb 0.00 in0.0 mm 0.00 in0.0 mm 0.00 in0.0 mm
03:45 AM 80.8°F27.1°C 73.3°F22.9°C 78% 2.4 mph S3.9 kmh S 6.0 mph9.7 kmh 29.81 in1009.5 mb 0.00 in0.0 mm 0.00 in0.0 mm 0.00 in0.0 mm
03:50 AM 80.8°F27.1°C 73.3°F22.9°C 78% 2.3 mph S3.7 kmh S 7.0 mph11.3 kmh 29.81 in1009.5 mb 0.00 in0.0 mm 0.00 in0.0 mm 0.00 in0.0 mm
03:55 AM 80.8°F27.1°C 73.3°F22.9°C 78% 2.5 mph SE4.0 kmh SE 7.0 mph11.3 kmh 29.81 in1009.5 mb 0.00 in0.0 mm 0.00 in0.0 mm 0.00 in0.0 mm
04:00 AM 80.8°F27.1°C 73.3°F22.9°C 78% 2.1 mph SSE3.4 kmh SSE 7.0 mph11.3 kmh 29.81 in1009.5 mb 0.00 in0.0 mm 0.00 in0.0 mm 0.00 in0.0 mm
04:05 AM 80.8°F27.1°C 72.9°F22.7°C 77% 2.7 mph S4.3 kmh S 8.0 mph12.9 kmh 29.81 in1009.5 mb 0.00 in0.0 mm 0.00 in0.0 mm 0.00 in0.0 mm
04:10 AM 80.9°F27.2°C 73.0°F22.8°C 77% 2.5 mph SSE4.0 kmh SSE 9.0 mph14.5 kmh 29.82 in1009.8 mb 0.00 in0.0 mm 0.00 in0.0 mm 0.00 in0.0 mm
04:15 AM 80.9°F27.2°C 73.0°F22.8°C 77% 1.7 mph SSE2.7 kmh SSE 9.0 mph14.5 kmh 29.82 in1009.8 mb 0.00 in0.0 mm 0.00 in0.0 mm 0.00 in0.0 mm
04:20 AM 80.8°F27.1°C 72.9°F22.7°C 77% 2.0 mph SE3.2 kmh SE 8.0 mph12.9 kmh 29.82 in1009.8 mb 0.00 in0.0 mm 0.00 in0.0 mm 0.00 in0.0 mm
04:25 AM 80.9°F27.2°C 73.0°F22.8°C 77% 2.4 mph S3.9 kmh S 8.0 mph12.9 kmh 29.82 in1009.8 mb 0.00 in0.0 mm 0.00 in0.0 mm 0.00 in0.0 mm
04:30 AM 80.9°F27.2°C 73.0°F22.8°C 77% 1.8 mph S2.9 kmh S 8.0 mph12.9 kmh 29.82 in1009.8 mb 0.00 in0.0 mm 0.00 in0.0 mm 0.00 in0.0 mm
04:35 AM 80.8°F27.1°C 72.9°F22.7°C 77% 1.7 mph S2.7 kmh S 7.0 mph11.3 kmh 29.82 in1009.8 mb 0.00 in0.0 mm 0.00 in0.0 mm 0.00 in0.0 mm
04:40 AM 80.8°F27.1°C 72.9°F22.7°C 77% 2.2 mph S3.5 kmh S 7.0 mph11.3 kmh 29.82 in1009.8 mb 0.00 in0.0 mm 0.00 in0.0 mm 0.00 in0.0 mm
04:45 AM 80.8°F27.1°C 72.5°F22.5°C 76% 2.2 mph SE3.5 kmh SE 9.0 mph14.5 kmh 29.82 in1009.8 mb 0.00 in0.0 mm 0.00 in0.0 mm 0.00 in0.0 mm
04:50 AM 80.8°F27.1°C 72.5°F22.5°C 76% 1.7 mph S2.7 kmh S 9.0 mph14.5 kmh 29.82 in1009.8 mb 0.00 in0.0 mm 0.00 in0.0 mm 0.00 in0.0 mm
04:55 AM 80.9°F27.2°C 72.6°F22.6°C 76% 2.8 mph S4.5 kmh S 7.0 mph11.3 kmh 29.82 in1009.8 mb 0.00 in0.0 mm 0.00 in0.0 mm 0.00 in0.0 mm
05:00 AM 80.9°F27.2°C 72.6°F22.6°C 76% 2.3 mph S3.7 kmh S 8.0 mph12.9 kmh 29.82 in1009.8 mb 0.00 in0.0 mm 0.00 in0.0 mm 0.00 in0.0 mm
05:05 AM 81.0°F27.2°C 72.7°F22.6°C 76% 2.5 mph SE4.0 kmh SE 8.0 mph12.9 kmh 29.82 in1009.8 mb 0.00 in0.0 mm 0.00 in0.0 mm 0.00 in0.0 mm
05:10 AM 81.0°F27.2°C 72.3°F22.4°C 75% 3.1 mph SSW5.0 kmh SSW 10.0 mph16.1 kmh 29.82 in1009.8 mb 0.00 in0.0 mm 0.00 in0.0 mm 0.00 in0.0 mm
05:15 AM 81.0°F27.2°C 72.3°F22.4°C 75% 2.0 mph S3.2 kmh S 10.0 mph16.1 kmh 29.82 in1009.8 mb 0.00 in0.0 mm 0.00 in0.0 mm 0.00 in0.0 mm
05:20 AM 81.0°F27.2°C 72.3°F22.4°C 75% 3.2 mph S5.1 kmh S 10.0 mph16.1 kmh 29.83 in1010.2 mb 0.00 in0.0 mm 0.00 in0.0 mm 0.00 in0.0 mm
05:25 AM 80.9°F27.2°C 72.2°F22.3°C 75% 1.5 mph S2.4 kmh S 10.0 mph16.1 kmh 29.83 in1010.2 mb 0.00 in0.0 mm 0.00 in0.0 mm 0.00 in0.0 mm
05:30 AM 81.0°F27.2°C 72.3°F22.4°C 75% 2.5 mph S4.0 kmh S 8.0 mph12.9 kmh 29.83 in1010.2 mb 0.00 in0.0 mm 0.00 in0.0 mm 0.00 in0.0 mm
05:35 AM 81.1°F27.3°C 72.4°F22.4°C 75% 2.2 mph S3.5 kmh S 9.0 mph14.5 kmh 29.83 in1010.2 mb 0.00 in0.0 mm 0.00 in0.0 mm 0.00 in0.0 mm
05:40 AM 81.0°F27.2°C 72.3°F22.4°C 75% 2.7 mph S4.3 kmh S 9.0 mph14.5 kmh 29.83 in1010.2 mb 0.00 in0.0 mm 0.00 in0.0 mm 0.00 in0.0 mm
05:45 AM 81.1°F27.3°C 72.4°F22.4°C 75% 3.3 mph S5.3 kmh S 9.0 mph14.5 kmh 29.83 in1010.2 mb 0.00 in0.0 mm 0.00 in0.0 mm 0.00 in0.0 mm
05:50 AM 81.1°F27.3°C 72.4°F22.4°C 75% 2.1 mph SSW3.4 kmh SSW 9.0 mph14.5 kmh 29.84 in1010.5 mb 0.00 in0.0 mm 0.00 in0.0 mm 0.00 in0.0 mm
05:55 AM 81.0°F27.2°C 72.7°F22.6°C 76% 1.3 mph SSW2.1 kmh SSW 8.0 mph12.9 kmh 29.84 in1010.5 mb 0.00 in0.0 mm 0.00 in0.0 mm 0.00 in0.0 mm
06:00 AM 80.9°F27.2°C 72.6°F22.6°C 76% 1.9 mph SSE3.1 kmh SSE 5.0 mph8.0 kmh 29.84 in1010.5 mb 0.00 in0.0 mm 0.00 in0.0 mm 0.00 in0.0 mm
06:05 AM 80.9°F27.2°C 72.6°F22.6°C 76% 1.7 mph S2.7 kmh S 5.0 mph8.0 kmh 29.84 in1010.5 mb 0.00 in0.0 mm 0.00 in0.0 mm 0.00 in0.0 mm
06:10 AM 80.9°F27.2°C 72.6°F22.6°C 76% 1.8 mph S2.9 kmh S 6.0 mph9.7 kmh 29.85 in1010.8 mb 0.00 in0.0 mm 0.00 in0.0 mm 0.00 in0.0 mm
06:15 AM 81.0°F27.2°C 72.7°F22.6°C 76% 1.7 mph SSE2.7 kmh SSE 7.0 mph11.3 kmh 29.84 in1010.5 mb 0.00 in0.0 mm 0.00 in0.0 mm 0.00 in0.0 mm
06:20 AM 81.0°F27.2°C 72.7°F22.6°C 76% 1.8 mph S2.9 kmh S 7.0 mph11.3 kmh 29.85 in1010.8 mb 0.00 in0.0 mm 0.00 in0.0 mm 0.00 in0.0 mm
06:25 AM 81.0°F27.2°C 72.7°F22.6°C 76% 1.5 mph S2.4 kmh S 7.0 mph11.3 kmh 29.85 in1010.8 mb 0.00 in0.0 mm 0.00 in0.0 mm 0.00 in0.0 mm
06:30 AM 81.0°F27.2°C 72.3°F22.4°C 75% 2.1 mph S3.4 kmh S 7.0 mph11.3 kmh 29.85 in1010.8 mb 0.00 in0.0 mm 0.00 in0.0 mm 0.00 in0.0 mm
06:35 AM 81.0°F27.2°C 72.7°F22.6°C 76% 1.1 mph SE1.8 kmh SE 5.0 mph8.0 kmh 29.85 in1010.8 mb 0.00 in0.0 mm 0.00 in0.0 mm 0.00 in0.0 mm
06:40 AM 81.1°F27.3°C 72.4°F22.4°C 75% 1.6 mph SE2.6 kmh SE 7.0 mph11.3 kmh 29.85 in1010.8 mb 0.00 in0.0 mm 0.00 in0.0 mm 0.00 in0.0 mm
06:45 AM 81.1°F27.3°C 72.4°F22.4°C 75% 1.9 mph SSE3.1 kmh SSE 9.0 mph14.5 kmh 29.85 in1010.8 mb 0.00 in0.0 mm 0.00 in0.0 mm 0.00 in0.0 mm
06:50 AM 81.2°F27.3°C 72.5°F22.5°C 75% 2.2 mph SSE3.5 kmh SSE 9.0 mph14.5 kmh 29.85 in1010.8 mb 0.00 in0.0 mm 0.00 in0.0 mm 0.00 in0.0 mm
06:55 AM 81.2°F27.3°C 72.5°F22.5°C 75% 2.9 mph SSW4.7 kmh SSW 7.0 mph11.3 kmh 29.85 in1010.8 mb 0.00 in0.0 mm 0.00 in0.0 mm 0.00 in0.0 mm
07:00 AM 81.2°F27.3°C 72.5°F22.5°C 75% 2.0 mph S3.2 kmh S 8.0 mph12.9 kmh 29.85 in1010.8 mb 0.00 in0.0 mm 0.00 in0.0 mm 0.00 in0.0 mm
07:05 AM 81.3°F27.4°C 73.0°F22.8°C 76% 1.6 mph SE2.6 kmh SE 8.0 mph12.9 kmh 29.85 in1010.8 mb 0.00 in0.0 mm 0.00 in0.0 mm 0.00 in0.0 mm
07:10 AM 81.5°F27.5°C 72.8°F22.7°C 75% 2.4 mph S3.9 kmh S 6.0 mph9.7 kmh 29.86 in1011.2 mb 0.00 in0.0 mm 0.00 in0.0 mm 0.00 in0.0 mm
07:15 AM 81.8°F27.7°C 73.1°F22.8°C 75% 2.2 mph S3.5 kmh S 6.0 mph9.7 kmh 29.85 in1010.8 mb 0.00 in0.0 mm 0.00 in0.0 mm 0.00 in0.0 mm
07:20 AM 82.0°F27.8°C 72.9°F22.7°C 74% 2.5 mph S4.0 kmh S 10.0 mph16.1 kmh 29.85 in1010.8 mb 0.00 in0.0 mm 0.00 in0.0 mm 0.00 in0.0 mm
07:25 AM 82.3°F27.9°C 73.6°F23.1°C 75% 2.7 mph SSE4.3 kmh SSE 10.0 mph16.1 kmh 29.85 in1010.8 mb 0.00 in0.0 mm 0.00 in0.0 mm 0.00 in0.0 mm
07:30 AM 82.6°F28.1°C 73.4°F23.0°C 74% 2.1 mph SE3.4 kmh SE 6.0 mph9.7 kmh 29.85 in1010.8 mb 0.00 in0.0 mm 0.00 in0.0 mm 0.00 in0.0 mm
07:35 AM 83.1°F28.4°C 73.5°F23.1°C 73% 2.3 mph S3.7 kmh S 9.0 mph14.5 kmh 29.85 in1010.8 mb 0.00 in0.0 mm 0.00 in0.0 mm 0.00 in0.0 mm
07:40 AM 82.9°F28.3°C 73.3°F22.9°C 73% 2.2 mph S3.5 kmh S 9.0 mph14.5 kmh 29.85 in1010.8 mb 0.00 in0.0 mm 0.00 in0.0 mm 0.00 in0.0 mm
07:45 AM 82.8°F28.2°C 73.6°F23.1°C 74% 2.3 mph S3.7 kmh S 7.0 mph11.3 kmh 29.84 in1010.5 mb 0.00 in0.0 mm 0.00 in0.0 mm 0.00 in0.0 mm
07:50 AM 82.5°F28.1°C 73.4°F23.0°C 74% 2.7 mph SSE4.3 kmh SSE 7.0 mph11.3 kmh 29.84 in1010.5 mb 0.00 in0.0 mm 0.00 in0.0 mm 0.00 in0.0 mm
07:55 AM 82.6°F28.1°C 73.4°F23.0°C 74% 2.3 mph S3.7 kmh S 8.0 mph12.9 kmh 29.84 in1010.5 mb 0.00 in0.0 mm 0.00 in0.0 mm 0.00 in0.0 mm
08:00 AM 83.2°F28.4°C 73.6°F23.1°C 73% 2.2 mph S3.5 kmh S 8.0 mph12.9 kmh 29.84 in1010.5 mb 0.00 in0.0 mm 0.00 in0.0 mm 0.00 in0.0 mm
08:05 AM 83.5°F28.6°C 73.5°F23.1°C 72% 2.4 mph S3.9 kmh S 11.0 mph17.7 kmh 29.84 in1010.5 mb 0.00 in0.0 mm 0.00 in0.0 mm 0.00 in0.0 mm
08:10 AM 83.7°F28.7°C 73.7°F23.2°C 72% 2.6 mph S4.2 kmh S 11.0 mph17.7 kmh 29.84 in1010.5 mb 0.00 in0.0 mm 0.00 in0.0 mm 0.00 in0.0 mm
08:15 AM 84.0°F28.9°C 74.0°F23.3°C 72% 2.2 mph S3.5 kmh S 10.0 mph16.1 kmh 29.84 in1010.5 mb 0.00 in0.0 mm 0.00 in0.0 mm 0.00 in0.0 mm
08:20 AM 84.6°F29.2°C 74.1°F23.4°C 71% 3.2 mph S5.1 kmh S 14.0 mph22.5 kmh 29.84 in1010.5 mb 0.00 in0.0 mm 0.00 in0.0 mm 0.00 in0.0 mm
08:25 AM 85.2°F29.6°C 74.3°F23.5°C 70% 2.8 mph S4.5 kmh S 14.0 mph22.5 kmh 29.83 in1010.2 mb 0.00 in0.0 mm 0.00 in0.0 mm 0.00 in0.0 mm
08:30 AM 85.0°F29.4°C 73.7°F23.2°C 69% 3.4 mph S5.5 kmh S 10.0 mph16.1 kmh 29.83 in1010.2 mb 0.00 in0.0 mm 0.00 in0.0 mm 0.00 in0.0 mm
08:35 AM 84.8°F29.3°C 73.5°F23.1°C 69% 2.7 mph S4.3 kmh S 10.0 mph16.1 kmh 29.83 in1010.2 mb 0.00 in0.0 mm 0.00 in0.0 mm 0.00 in0.0 mm
08:40 AM 85.5°F29.7°C 74.6°F23.7°C 70% 1.9 mph SSW3.1 kmh SSW 9.0 mph14.5 kmh 29.83 in1010.2 mb 0.00 in0.0 mm 0.00 in0.0 mm 0.00 in0.0 mm
08:45 AM 85.6°F29.8°C 74.2°F23.4°C 69% 2.8 mph S4.5 kmh S 12.0 mph19.3 kmh 29.83 in1010.2 mb 0.00 in0.0 mm 0.00 in0.0 mm 0.00 in0.0 mm
08:50 AM 85.7°F29.8°C 74.3°F23.5°C 69% 2.7 mph S4.3 kmh S 12.0 mph19.3 kmh 29.83 in1010.2 mb 0.00 in0.0 mm 0.00 in0.0 mm 0.00 in0.0 mm
08:55 AM 85.5°F29.7°C 74.6°F23.7°C 70% 2.9 mph S4.7 kmh S 8.0 mph12.9 kmh 29.82 in1009.8 mb 0.00 in0.0 mm 0.00 in0.0 mm 0.00 in0.0 mm
09:00 AM 86.3°F30.2°C 74.5°F23.6°C 68% 2.9 mph SSE4.7 kmh SSE 7.0 mph11.3 kmh 29.82 in1009.8 mb 0.00 in0.0 mm 0.00 in0.0 mm 0.00 in0.0 mm
09:05 AM 86.5°F30.3°C 74.7°F23.7°C 68% 3.4 mph S5.5 kmh S 12.0 mph19.3 kmh 29.82 in1009.8 mb 0.00 in0.0 mm 0.00 in0.0 mm 0.00 in0.0 mm
09:10 AM 86.2°F30.1°C 73.9°F23.3°C 67% 2.7 mph S4.3 kmh S 12.0 mph19.3 kmh 29.82 in1009.8 mb 0.00 in0.0 mm 0.00 in0.0 mm 0.00 in0.0 mm
09:15 AM 86.0°F30.0°C 73.7°F23.2°C 67% 2.8 mph SSE4.5 kmh SSE 10.0 mph16.1 kmh 29.82 in1009.8 mb 0.00 in0.0 mm 0.00 in0.0 mm 0.00 in0.0 mm
09:20 AM 85.9°F29.9°C 73.2°F22.9°C 66% 4.8 mph S7.7 kmh S 13.0 mph20.9 kmh 29.83 in1010.2 mb 0.00 in0.0 mm 0.00 in0.0 mm 0.00 in0.0 mm
09:25 AM 86.3°F30.2°C 74.5°F23.6°C 68% 3.2 mph SSW5.1 kmh SSW 13.0 mph20.9 kmh 29.83 in1010.2 mb 0.00 in0.0 mm 0.00 in0.0 mm 0.00 in0.0 mm
09:30 AM 87.0°F30.6°C 73.8°F23.2°C 65% 4.1 mph S6.6 kmh S 12.0 mph19.3 kmh 29.83 in1010.2 mb 0.00 in0.0 mm 0.00 in0.0 mm 0.00 in0.0 mm
09:35 AM 87.7°F30.9°C 74.4°F23.6°C 65% 3.1 mph S5.0 kmh S 12.0 mph19.3 kmh 29.83 in1010.2 mb 0.00 in0.0 mm 0.00 in0.0 mm 0.00 in0.0 mm
09:40 AM 88.4°F31.3°C 75.1°F23.9°C 65% 3.4 mph SSE5.5 kmh SSE 10.0 mph16.1 kmh 29.83 in1010.2 mb 0.00 in0.0 mm 0.00 in0.0 mm 0.00 in0.0 mm
09:45 AM 88.6°F31.4°C 74.4°F23.6°C 63% 3.5 mph SSW5.6 kmh SSW 10.0 mph16.1 kmh 29.83 in1010.2 mb 0.00 in0.0 mm 0.00 in0.0 mm 0.00 in0.0 mm
09:50 AM 87.9°F31.1°C 74.2°F23.4°C 64% 3.5 mph SSW5.6 kmh SSW 11.0 mph17.7 kmh 29.83 in1010.2 mb 0.00 in0.0 mm 0.00 in0.0 mm 0.00 in0.0 mm
09:55 AM 87.6°F30.9°C 74.8°F23.8°C 66% 3.2 mph SSW5.1 kmh SSW 11.0 mph17.7 kmh 29.83 in1010.2 mb 0.00 in0.0 mm 0.00 in0.0 mm 0.00 in0.0 mm
10:00 AM 87.2°F30.7°C 74.0°F23.3°C 65% 3.7 mph SSW6.0 kmh SSW 9.0 mph14.5 kmh 29.83 in1010.2 mb 0.00 in0.0 mm 0.00 in0.0 mm 0.00 in0.0 mm
10:05 AM 87.5°F30.8°C 74.3°F23.5°C 65% 2.4 mph S3.9 kmh S 9.0 mph14.5 kmh 29.83 in1010.2 mb 0.00 in0.0 mm 0.00 in0.0 mm 0.00 in0.0 mm
10:10 AM 87.3°F30.7°C 74.1°F23.4°C 65% 3.0 mph S4.8 kmh S 9.0 mph14.5 kmh 29.83 in1010.2 mb 0.00 in0.0 mm 0.00 in0.0 mm 0.00 in0.0 mm
10:15 AM 87.3°F30.7°C 74.5°F23.6°C 66% 3.8 mph S6.1 kmh S 11.0 mph17.7 kmh 29.83 in1010.2 mb 0.00 in0.0 mm 0.00 in0.0 mm 0.00 in0.0 mm
10:20 AM 86.9°F30.5°C 73.7°F23.2°C 65% 3.2 mph SSW5.1 kmh SSW 11.0 mph17.7 kmh 29.83 in1010.2 mb 0.00 in0.0 mm 0.00 in0.0 mm 0.00 in0.0 mm
10:25 AM 86.7°F30.4°C 74.0°F23.3°C 66% 3.5 mph S5.6 kmh S 9.0 mph14.5 kmh 29.83 in1010.2 mb 0.00 in0.0 mm 0.00 in0.0 mm 0.00 in0.0 mm
10:30 AM 88.0°F31.1°C 75.2°F24.0°C 66% 3.7 mph SSW6.0 kmh SSW 13.0 mph20.9 kmh 29.83 in1010.2 mb 0.00 in0.0 mm 0.00 in0.0 mm 0.00 in0.0 mm
10:35 AM 88.4°F31.3°C 75.6°F24.2°C 66% 2.4 mph S3.9 kmh S 13.0 mph20.9 kmh 29.82 in1009.8 mb 0.00 in0.0 mm 0.00 in0.0 mm 0.00 in0.0 mm
10:40 AM 88.5°F31.4°C 75.7°F24.3°C 66% 2.6 mph SSW4.2 kmh SSW 8.0 mph12.9 kmh 29.83 in1010.2 mb 0.00 in0.0 mm 0.00 in0.0 mm 0.00 in0.0 mm
10:45 AM 88.2°F31.2°C 74.9°F23.8°C 65% 4.3 mph SSW6.9 kmh SSW 12.0 mph19.3 kmh 29.82 in1009.8 mb 0.00 in0.0 mm 0.00 in0.0 mm 0.00 in0.0 mm
10:50 AM 88.9°F31.6°C 74.6°F23.7°C 63% 3.7 mph SSW6.0 kmh SSW 12.0 mph19.3 kmh 29.82 in1009.8 mb 0.00 in0.0 mm 0.00 in0.0 mm 0.00 in0.0 mm
10:55 AM 89.4°F31.9°C 74.6°F23.7°C 62% 3.8 mph S6.1 kmh S 11.0 mph17.7 kmh 29.82 in1009.8 mb 0.00 in0.0 mm 0.00 in0.0 mm 0.00 in0.0 mm
11:00 AM 89.6°F32.0°C 74.3°F23.5°C 61% 4.8 mph SSW7.7 kmh SSW 14.0 mph22.5 kmh 29.82 in1009.8 mb 0.00 in0.0 mm 0.00 in0.0 mm 0.00 in0.0 mm
11:05 AM 90.1°F32.3°C 75.8°F24.3°C 63% 3.5 mph S5.6 kmh S 14.0 mph22.5 kmh 29.82 in1009.8 mb 0.00 in0.0 mm 0.00 in0.0 mm 0.00 in0.0 mm
11:10 AM 90.3°F32.4°C 75.5°F24.2°C 62% 4.2 mph SSW6.8 kmh SSW 11.0 mph17.7 kmh 29.82 in1009.8 mb 0.00 in0.0 mm 0.00 in0.0 mm 0.00 in0.0 mm
11:15 AM 90.5°F32.5°C 74.7°F23.7°C 60% 3.8 mph SSW6.1 kmh SSW 10.0 mph16.1 kmh 29.82 in1009.8 mb 0.00 in0.0 mm 0.00 in0.0 mm 0.00 in0.0 mm
11:20 AM 89.8°F32.1°C 75.0°F23.9°C 62% 2.6 mph S4.2 kmh S 10.0 mph16.1 kmh 29.82 in1009.8 mb 0.00 in0.0 mm 0.00 in0.0 mm 0.00 in0.0 mm
11:25 AM 89.5°F31.9°C 74.7°F23.7°C 62% 2.4 mph SSW3.9 kmh SSW 9.0 mph14.5 kmh 29.82 in1009.8 mb 0.00 in0.0 mm 0.00 in0.0 mm 0.00 in0.0 mm
11:30 AM 90.1°F32.3°C 76.2°F24.6°C 64% 3.5 mph SW5.6 kmh SW 10.0 mph16.1 kmh 29.82 in1009.8 mb 0.00 in0.0 mm 0.00 in0.0 mm 0.00 in0.0 mm
11:35 AM 90.1°F32.3°C 73.8°F23.2°C 59% 4.5 mph SSW7.2 kmh SSW 10.0 mph16.1 kmh 29.81 in1009.5 mb 0.00 in0.0 mm 0.00 in0.0 mm 0.00 in0.0 mm
11:40 AM 90.1°F32.3°C 74.8°F23.8°C 61% 4.8 mph SW7.7 kmh SW 11.0 mph17.7 kmh 29.81 in1009.5 mb 0.00 in0.0 mm 0.00 in0.0 mm 0.00 in0.0 mm
11:45 AM 89.7°F32.1°C 75.9°F24.4°C 64% 3.3 mph S5.3 kmh S 11.0 mph17.7 kmh 29.81 in1009.5 mb 0.00 in0.0 mm 0.00 in0.0 mm 0.00 in0.0 mm
11:50 AM 90.3°F32.4°C 76.0°F24.4°C 63% 3.7 mph SSW6.0 kmh SSW 12.0 mph19.3 kmh 29.81 in1009.5 mb 0.00 in0.0 mm 0.00 in0.0 mm 0.00 in0.0 mm
11:55 AM 90.6°F32.6°C 75.3°F24.1°C 61% 3.6 mph SW5.8 kmh SW 12.0 mph19.3 kmh 29.81 in1009.5 mb 0.00 in0.0 mm 0.00 in0.0 mm 0.00 in0.0 mm
12:00 PM 91.4°F33.0°C 76.0°F24.4°C 61% 2.9 mph SW4.7 kmh SW 10.0 mph16.1 kmh 29.81 in1009.5 mb 0.00 in0.0 mm 0.00 in0.0 mm 0.00 in0.0 mm
12:05 PM 91.1°F32.8°C 76.2°F24.6°C 62% 4.1 mph SW6.6 kmh SW 11.0 mph17.7 kmh 29.81 in1009.5 mb 0.00 in0.0 mm 0.00 in0.0 mm 0.00 in0.0 mm
12:10 PM 91.0°F32.8°C 74.6°F23.7°C 59% 3.6 mph SSW5.8 kmh SSW 11.0 mph17.7 kmh 29.81 in1009.5 mb 0.00 in0.0 mm 0.00 in0.0 mm 0.00 in0.0 mm
12:15 PM 90.8°F32.7°C 73.9°F23.3°C 58% 4.9 mph SW7.9 kmh SW 11.0 mph17.7 kmh 29.81 in1009.5 mb 0.00 in0.0 mm 0.00 in0.0 mm 0.00 in0.0 mm
12:20 PM 90.8°F32.7°C 74.5°F23.6°C 59% 3.1 mph SSW5.0 kmh SSW 9.0 mph14.5 kmh 29.81 in1009.5 mb 0.00 in0.0 mm 0.00 in0.0 mm 0.00 in0.0 mm
12:25 PM 90.3°F32.4°C 74.5°F23.6°C 60% 4.5 mph SW7.2 kmh SW 11.0 mph17.7 kmh 29.81 in1009.5 mb 0.00 in0.0 mm 0.00 in0.0 mm 0.00 in0.0 mm
12:30 PM 90.1°F32.3°C 74.3°F23.5°C 60% 4.1 mph SSW6.6 kmh SSW 11.0 mph17.7 kmh 29.81 in1009.5 mb 0.00 in0.0 mm 0.00 in0.0 mm 0.00 in0.0 mm
12:35 PM 90.4°F32.4°C 74.6°F23.7°C 60% 3.6 mph SSW5.8 kmh SSW 10.0 mph16.1 kmh 29.80 in1009.1 mb 0.00 in0.0 mm 0.00 in0.0 mm 0.00 in0.0 mm
12:40 PM 90.6°F32.6°C 75.3°F24.1°C 61% 2.8 mph S4.5 kmh S 10.0 mph16.1 kmh 29.80 in1009.1 mb 0.00 in0.0 mm 0.00 in0.0 mm 0.00 in0.0 mm
12:45 PM 90.7°F32.6°C 74.9°F23.8°C 60% 2.5 mph S4.0 kmh S 9.0 mph14.5 kmh 29.80 in1009.1 mb 0.00 in0.0 mm 0.00 in0.0 mm 0.00 in0.0 mm
12:50 PM 89.9°F32.2°C 73.6°F23.1°C 59% 3.7 mph SSW6.0 kmh SSW 9.0 mph14.5 kmh 29.80 in1009.1 mb 0.00 in0.0 mm 0.00 in0.0 mm 0.00 in0.0 mm
12:55 PM 89.5°F31.9°C 74.7°F23.7°C 62% 2.6 mph S4.2 kmh S 9.0 mph14.5 kmh 29.80 in1009.1 mb 0.00 in0.0 mm 0.00 in0.0 mm 0.00 in0.0 mm
01:00 PM 89.8°F32.1°C 74.5°F23.6°C 61% 2.3 mph S3.7 kmh S 8.0 mph12.9 kmh 29.80 in1009.1 mb 0.00 in0.0 mm 0.00 in0.0 mm 0.00 in0.0 mm
01:05 PM 91.2°F32.9°C 76.3°F24.6°C 62% 2.8 mph S4.5 kmh S 10.0 mph16.1 kmh 29.79 in1008.8 mb 0.00 in0.0 mm 0.00 in0.0 mm 0.00 in0.0 mm
01:10 PM 91.7°F33.2°C 75.3°F24.1°C 59% 3.6 mph SSW5.8 kmh SSW 10.0 mph16.1 kmh 29.79 in1008.8 mb 0.00 in0.0 mm 0.00 in0.0 mm 0.00 in0.0 mm
01:15 PM 91.4°F33.0°C 74.0°F23.3°C 57% 4.9 mph SSW7.9 kmh SSW 12.0 mph19.3 kmh 29.79 in1008.8 mb 0.00 in0.0 mm 0.00 in0.0 mm 0.00 in0.0 mm
01:20 PM 91.5°F33.1°C 75.1°F23.9°C 59% 3.5 mph SSW5.6 kmh SSW 12.0 mph19.3 kmh 29.79 in1008.8 mb 0.00 in0.0 mm 0.00 in0.0 mm 0.00 in0.0 mm
01:25 PM 91.6°F33.1°C 74.7°F23.7°C 58% 3.2 mph S5.1 kmh S 10.0 mph16.1 kmh 29.79 in1008.8 mb 0.00 in0.0 mm 0.00 in0.0 mm 0.00 in0.0 mm
01:30 PM 91.2°F32.9°C 75.8°F24.3°C 61% 2.2 mph SSE3.5 kmh SSE 9.0 mph14.5 kmh 29.78 in1008.5 mb 0.00 in0.0 mm 0.00 in0.0 mm 0.00 in0.0 mm
01:35 PM 91.1°F32.8°C 77.2°F25.1°C 64% 2.4 mph SSE3.9 kmh SSE 8.0 mph12.9 kmh 29.78 in1008.5 mb 0.00 in0.0 mm 0.00 in0.0 mm 0.00 in0.0 mm
01:40 PM 92.0°F33.3°C 76.1°F24.5°C 60% 2.7 mph S4.3 kmh S 8.0 mph12.9 kmh 29.78 in1008.5 mb 0.00 in0.0 mm 0.00 in0.0 mm 0.00 in0.0 mm
01:45 PM 92.4°F33.6°C 76.0°F24.4°C 59% 2.3 mph S3.7 kmh S 8.0 mph12.9 kmh 29.77 in1008.1 mb 0.00 in0.0 mm 0.00 in0.0 mm 0.00 in0.0 mm
01:50 PM 91.5°F33.1°C 74.6°F23.7°C 58% 3.5 mph S5.6 kmh S 10.0 mph16.1 kmh 29.77 in1008.1 mb 0.00 in0.0 mm 0.00 in0.0 mm 0.00 in0.0 mm
01:55 PM 91.7°F33.2°C 76.3°F24.6°C 61% 2.6 mph S4.2 kmh S 10.0 mph16.1 kmh 29.77 in1008.1 mb 0.00 in0.0 mm 0.00 in0.0 mm 0.00 in0.0 mm
02:00 PM 92.0°F33.3°C 75.6°F24.2°C 59% 3.3 mph SSW5.3 kmh SSW 9.0 mph14.5 kmh 29.76 in1007.8 mb 0.00 in0.0 mm 0.00 in0.0 mm 0.00 in0.0 mm
02:05 PM 92.7°F33.7°C 76.2°F24.6°C 59% 3.7 mph S6.0 kmh S 9.0 mph14.5 kmh 29.75 in1007.5 mb 0.00 in0.0 mm 0.00 in0.0 mm 0.00 in0.0 mm
02:10 PM 91.7°F33.2°C 75.3°F24.1°C 59% 3.9 mph SSW6.3 kmh SSW 12.0 mph19.3 kmh 29.75 in1007.5 mb 0.00 in0.0 mm 0.00 in0.0 mm 0.00 in0.0 mm
02:15 PM 92.5°F33.6°C 76.6°F24.8°C 60% 3.1 mph S5.0 kmh S 12.0 mph19.3 kmh 29.75 in1007.5 mb 0.00 in0.0 mm 0.00 in0.0 mm 0.00 in0.0 mm
02:20 PM 92.2°F33.4°C 75.2°F24.0°C 58% 2.9 mph SSE4.7 kmh SSE 8.0 mph12.9 kmh 29.75 in1007.5 mb 0.00 in0.0 mm 0.00 in0.0 mm 0.00 in0.0 mm
02:25 PM 92.1°F33.4°C 75.2°F24.0°C 58% 3.7 mph SSW6.0 kmh SSW 8.0 mph12.9 kmh 29.75 in1007.5 mb 0.00 in0.0 mm 0.00 in0.0 mm 0.00 in0.0 mm
02:30 PM 92.7°F33.7°C 75.7°F24.3°C 58% 2.3 mph SSW3.7 kmh SSW 8.0 mph12.9 kmh 29.74 in1007.1 mb 0.00 in0.0 mm 0.00 in0.0 mm 0.00 in0.0 mm
02:35 PM 93.4°F34.1°C 75.8°F24.3°C 57% 2.4 mph S3.9 kmh S 10.0 mph16.1 kmh 29.74 in1007.1 mb 0.00 in0.0 mm 0.00 in0.0 mm 0.00 in0.0 mm
02:40 PM 93.7°F34.3°C 76.1°F24.5°C 57% 3.0 mph SSW4.8 kmh SSW 10.0 mph16.1 kmh 29.74 in1007.1 mb 0.00 in0.0 mm 0.00 in0.0 mm 0.00 in0.0 mm
02:45 PM 93.9°F34.4°C 75.2°F24.0°C 55% 3.2 mph SW5.1 kmh SW 10.0 mph16.1 kmh 29.74 in1007.1 mb 0.00 in0.0 mm 0.00 in0.0 mm 0.00 in0.0 mm
02:50 PM 93.1°F33.9°C 75.6°F24.2°C 57% 2.5 mph S4.0 kmh S 8.0 mph12.9 kmh 29.73 in1006.8 mb 0.00 in0.0 mm 0.00 in0.0 mm 0.00 in0.0 mm
02:55 PM 93.1°F33.9°C 76.1°F24.5°C 58% 2.7 mph SE4.3 kmh SE 8.0 mph12.9 kmh 29.73 in1006.8 mb 0.00 in0.0 mm 0.00 in0.0 mm 0.00 in0.0 mm
03:00 PM 92.8°F33.8°C 76.3°F24.6°C 59% 3.2 mph SSE5.1 kmh SSE 11.0 mph17.7 kmh 29.73 in1006.8 mb 0.00 in0.0 mm 0.00 in0.0 mm 0.00 in0.0 mm
03:05 PM 92.8°F33.8°C 75.8°F24.3°C 58% 3.6 mph SE5.8 kmh SE 11.0 mph17.7 kmh 29.73 in1006.8 mb 0.00 in0.0 mm 0.00 in0.0 mm 0.00 in0.0 mm
03:10 PM 93.0°F33.9°C 76.0°F24.4°C 58% 3.2 mph SE5.1 kmh SE 10.0 mph16.1 kmh 29.73 in1006.8 mb 0.00 in0.0 mm 0.00 in0.0 mm 0.00 in0.0 mm
03:15 PM 93.2°F34.0°C 75.7°F24.3°C 57% 2.8 mph S4.5 kmh S 10.0 mph16.1 kmh 29.73 in1006.8 mb 0.00 in0.0 mm 0.00 in0.0 mm 0.00 in0.0 mm
03:20 PM 93.1°F33.9°C 74.5°F23.6°C 55% 4.3 mph S6.9 kmh S 13.0 mph20.9 kmh 29.72 in1006.4 mb 0.00 in0.0 mm 0.00 in0.0 mm 0.00 in0.0 mm
03:25 PM 93.2°F34.0°C 76.7°F24.8°C 59% 2.6 mph SSW4.2 kmh SSW 13.0 mph20.9 kmh 29.71 in1006.1 mb 0.00 in0.0 mm 0.00 in0.0 mm 0.00 in0.0 mm
03:30 PM 92.8°F33.8°C 76.3°F24.6°C 59% 2.9 mph SSE4.7 kmh SSE 11.0 mph17.7 kmh 29.71 in1006.1 mb 0.00 in0.0 mm 0.00 in0.0 mm 0.00 in0.0 mm
03:35 PM 92.6°F33.7°C 76.1°F24.5°C 59% 3.0 mph S4.8 kmh S 11.0 mph17.7 kmh 29.70 in1005.8 mb 0.00 in0.0 mm 0.00 in0.0 mm 0.00 in0.0 mm
03:40 PM 92.7°F33.7°C 75.7°F24.3°C 58% 3.0 mph SSE4.8 kmh SSE 9.0 mph14.5 kmh 29.70 in1005.8 mb 0.00 in0.0 mm 0.00 in0.0 mm 0.00 in0.0 mm
03:45 PM 92.3°F33.5°C 74.3°F23.5°C 56% 2.7 mph SSW4.3 kmh SSW 10.0 mph16.1 kmh 29.69 in1005.4 mb 0.00 in0.0 mm 0.00 in0.0 mm 0.00 in0.0 mm
03:50 PM 92.2°F33.4°C 75.2°F24.0°C 58% 3.4 mph SSE5.5 kmh SSE 10.0 mph16.1 kmh 29.69 in1005.4 mb 0.00 in0.0 mm 0.00 in0.0 mm 0.00 in0.0 mm
03:55 PM 93.2°F34.0°C 75.7°F24.3°C 57% 2.7 mph S4.3 kmh S 10.0 mph16.1 kmh 29.68 in1005.1 mb 0.00 in0.0 mm 0.00 in0.0 mm 0.00 in0.0 mm
04:00 PM 93.5°F34.2°C 75.9°F24.4°C 57% 3.2 mph SSE5.1 kmh SSE 8.0 mph12.9 kmh 29.68 in1005.1 mb 0.00 in0.0 mm 0.00 in0.0 mm 0.00 in0.0 mm
04:05 PM 92.6°F33.7°C 75.6°F24.2°C 58% 2.9 mph S4.7 kmh S 8.0 mph12.9 kmh 29.68 in1005.1 mb 0.00 in0.0 mm 0.00 in0.0 mm 0.00 in0.0 mm
04:10 PM 92.0°F33.3°C 75.6°F24.2°C 59% 3.9 mph SE6.3 kmh SE 13.0 mph20.9 kmh 29.68 in1005.1 mb 0.00 in0.0 mm 0.00 in0.0 mm 0.00 in0.0 mm
04:15 PM 92.6°F33.7°C 76.6°F24.8°C 60% 3.4 mph SE5.5 kmh SE 13.0 mph20.9 kmh 29.67 in1004.7 mb 0.00 in0.0 mm 0.00 in0.0 mm 0.00 in0.0 mm
04:20 PM 92.7°F33.7°C 76.7°F24.8°C 60% 2.4 mph S3.9 kmh S 10.0 mph16.1 kmh 29.68 in1005.1 mb 0.00 in0.0 mm 0.00 in0.0 mm 0.00 in0.0 mm
04:25 PM 92.1°F33.4°C 75.2°F24.0°C 58% 3.2 mph SSE5.1 kmh SSE 10.0 mph16.1 kmh 29.68 in1005.1 mb 0.00 in0.0 mm 0.00 in0.0 mm 0.00 in0.0 mm
04:30 PM 91.9°F33.3°C 75.5°F24.2°C 59% 3.2 mph S5.1 kmh S 10.0 mph16.1 kmh 29.68 in1005.1 mb 0.00 in0.0 mm 0.00 in0.0 mm 0.00 in0.0 mm
04:35 PM 92.2°F33.4°C 75.2°F24.0°C 58% 3.3 mph S5.3 kmh S 10.0 mph16.1 kmh 29.67 in1004.7 mb 0.00 in0.0 mm 0.00 in0.0 mm 0.00 in0.0 mm
04:40 PM 92.5°F33.6°C 75.0°F23.9°C 57% 3.2 mph S5.1 kmh S 10.0 mph16.1 kmh 29.67 in1004.7 mb 0.00 in0.0 mm 0.00 in0.0 mm 0.00 in0.0 mm
04:45 PM 92.7°F33.7°C 74.7°F23.7°C 56% 2.7 mph SSE4.3 kmh SSE 11.0 mph17.7 kmh 29.67 in1004.7 mb 0.00 in0.0 mm 0.00 in0.0 mm 0.00 in0.0 mm
04:50 PM 93.0°F33.9°C 74.9°F23.8°C 56% 3.1 mph S5.0 kmh S 11.0 mph17.7 kmh 29.66 in1004.4 mb 0.00 in0.0 mm 0.00 in0.0 mm 0.00 in0.0 mm
04:55 PM 93.5°F34.2°C 75.4°F24.1°C 56% 2.4 mph SSW3.9 kmh SSW 10.0 mph16.1 kmh 29.67 in1004.7 mb 0.00 in0.0 mm 0.00 in0.0 mm 0.00 in0.0 mm
05:00 PM 93.4°F34.1°C 74.8°F23.8°C 55% 3.0 mph SW4.8 kmh SW 8.0 mph12.9 kmh 29.67 in1004.7 mb 0.00 in0.0 mm 0.00 in0.0 mm 0.00 in0.0 mm
05:05 PM 93.3°F34.1°C 75.8°F24.3°C 57% 2.6 mph S4.2 kmh S 8.0 mph12.9 kmh 29.67 in1004.7 mb 0.00 in0.0 mm 0.00 in0.0 mm 0.00 in0.0 mm
05:10 PM 92.4°F33.6°C 74.9°F23.8°C 57% 2.0 mph SSE3.2 kmh SSE 6.0 mph9.7 kmh 29.67 in1004.7 mb 0.00 in0.0 mm 0.00 in0.0 mm 0.00 in0.0 mm
05:15 PM 92.0°F33.3°C 74.5°F23.6°C 57% 2.6 mph S4.2 kmh S 8.0 mph12.9 kmh 29.68 in1005.1 mb 0.00 in0.0 mm 0.00 in0.0 mm 0.00 in0.0 mm
05:20 PM 92.2°F33.4°C 73.7°F23.2°C 55% 2.9 mph S4.7 kmh S 9.0 mph14.5 kmh 29.68 in1005.1 mb 0.00 in0.0 mm 0.00 in0.0 mm 0.00 in0.0 mm
05:25 PM 91.4°F33.0°C 73.5°F23.1°C 56% 3.1 mph S5.0 kmh S 9.0 mph14.5 kmh 29.68 in1005.1 mb 0.00 in0.0 mm 0.00 in0.0 mm 0.00 in0.0 mm
05:30 PM 90.7°F32.6°C 73.3°F22.9°C 57% 2.3 mph SE3.7 kmh SE 9.0 mph14.5 kmh 29.68 in1005.1 mb 0.00 in0.0 mm 0.00 in0.0 mm 0.00 in0.0 mm
05:35 PM 90.6°F32.6°C 73.8°F23.2°C 58% 2.3 mph SSW3.7 kmh SSW 7.0 mph11.3 kmh 29.69 in1005.4 mb 0.00 in0.0 mm 0.00 in0.0 mm 0.00 in0.0 mm
05:40 PM 90.5°F32.5°C 73.1°F22.8°C 57% 1.8 mph SSW2.9 kmh SSW 7.0 mph11.3 kmh 29.69 in1005.4 mb 0.00 in0.0 mm 0.00 in0.0 mm 0.00 in0.0 mm
05:45 PM 90.4°F32.4°C 73.6°F23.1°C 58% 2.6 mph SSW4.2 kmh SSW 7.0 mph11.3 kmh 29.70 in1005.8 mb 0.00 in0.0 mm 0.00 in0.0 mm 0.00 in0.0 mm
05:50 PM 90.3°F32.4°C 73.5°F23.1°C 58% 1.9 mph SSW3.1 kmh SSW 7.0 mph11.3 kmh 29.70 in1005.8 mb 0.00 in0.0 mm 0.00 in0.0 mm 0.00 in0.0 mm
05:55 PM 90.6°F32.6°C 73.8°F23.2°C 58% 3.1 mph SSW5.0 kmh SSW 10.0 mph16.1 kmh 29.70 in1005.8 mb 0.00 in0.0 mm 0.00 in0.0 mm 0.00 in0.0 mm
06:00 PM 91.0°F32.8°C 74.1°F23.4°C 58% 2.1 mph S3.4 kmh S 10.0 mph16.1 kmh 29.70 in1005.8 mb 0.00 in0.0 mm 0.00 in0.0 mm 0.00 in0.0 mm
06:05 PM 91.1°F32.8°C 73.7°F23.2°C 57% 1.8 mph SSW2.9 kmh SSW 6.0 mph9.7 kmh 29.70 in1005.8 mb 0.00 in0.0 mm 0.00 in0.0 mm 0.00 in0.0 mm
06:10 PM 91.7°F33.2°C 74.3°F23.5°C 57% 2.2 mph SW3.5 kmh SW 5.0 mph8.0 kmh 29.70 in1005.8 mb 0.00 in0.0 mm 0.00 in0.0 mm 0.00 in0.0 mm
06:15 PM 92.4°F33.6°C 73.8°F23.2°C 55% 2.5 mph SSW4.0 kmh SSW 6.0 mph9.7 kmh 29.70 in1005.8 mb 0.00 in0.0 mm 0.00 in0.0 mm 0.00 in0.0 mm
06:20 PM 92.2°F33.4°C 75.2°F24.0°C 58% 0.5 mph SSE0.8 kmh SSE 6.0 mph9.7 kmh 29.70 in1005.8 mb 0.00 in0.0 mm 0.00 in0.0 mm 0.00 in0.0 mm
06:25 PM 92.0°F33.3°C 75.1°F23.9°C 58% 0.9 mph S1.4 kmh S 3.0 mph4.8 kmh 29.70 in1005.8 mb 0.00 in0.0 mm 0.00 in0.0 mm 0.00 in0.0 mm
06:30 PM 91.6°F33.1°C 74.7°F23.7°C 58% 1.3 mph SSW2.1 kmh SSW 3.0 mph4.8 kmh 29.70 in1005.8 mb 0.00 in0.0 mm 0.00 in0.0 mm 0.00 in0.0 mm
06:35 PM 91.0°F32.8°C 74.1°F23.4°C 58% 1.5 mph S2.4 kmh S 3.0 mph4.8 kmh 29.69 in1005.4 mb 0.00 in0.0 mm 0.00 in0.0 mm 0.00 in0.0 mm
06:40 PM 90.6°F32.6°C 74.3°F23.5°C 59% 0.7 mph S1.1 kmh S 3.0 mph4.8 kmh 29.70 in1005.8 mb 0.00 in0.0 mm 0.00 in0.0 mm 0.00 in0.0 mm
06:45 PM 90.2°F32.3°C 73.9°F23.3°C 59% 2.1 mph SSW3.4 kmh SSW 5.0 mph8.0 kmh 29.70 in1005.8 mb 0.00 in0.0 mm 0.00 in0.0 mm 0.00 in0.0 mm
06:50 PM 89.8°F32.1°C 74.0°F23.3°C 60% 1.1 mph SE1.8 kmh SE 5.0 mph8.0 kmh 29.70 in1005.8 mb 0.00 in0.0 mm 0.00 in0.0 mm 0.00 in0.0 mm
06:55 PM 88.9°F31.6°C 74.2°F23.4°C 62% 2.4 mph SE3.9 kmh SE 11.0 mph17.7 kmh 29.70 in1005.8 mb 0.00 in0.0 mm 0.00 in0.0 mm 0.00 in0.0 mm
07:00 PM 88.1°F31.2°C 74.4°F23.6°C 64% 1.0 mph SE1.6 kmh SE 11.0 mph17.7 kmh 29.70 in1005.8 mb 0.00 in0.0 mm 0.00 in0.0 mm 0.00 in0.0 mm
07:05 PM 87.5°F30.8°C 74.3°F23.5°C 65% 0.6 mph ESE1.0 kmh ESE 4.0 mph6.4 kmh 29.70 in1005.8 mb 0.00 in0.0 mm 0.00 in0.0 mm 0.00 in0.0 mm
07:10 PM 87.2°F30.7°C 74.0°F23.3°C 65% 0.9 mph SE1.4 kmh SE 3.0 mph4.8 kmh 29.69 in1005.4 mb 0.00 in0.0 mm 0.00 in0.0 mm 0.00 in0.0 mm
07:15 PM 86.8°F30.4°C 74.0°F23.3°C 66% 1.1 mph ESE1.8 kmh ESE 3.0 mph4.8 kmh 29.69 in1005.4 mb 0.00 in0.0 mm 0.00 in0.0 mm 0.00 in0.0 mm
07:20 PM 85.3°F29.6°C 71.2°F21.8°C 63% 3.8 mph ESE6.1 kmh ESE 7.0 mph11.3 kmh 29.71 in1006.1 mb 0.00 in0.0 mm 0.00 in0.0 mm 0.00 in0.0 mm
07:25 PM 84.2°F29.0°C 72.0°F22.2°C 67% 3.4 mph ESE5.5 kmh ESE 8.0 mph12.9 kmh 29.72 in1006.4 mb 0.00 in0.0 mm 0.00 in0.0 mm 0.00 in0.0 mm
07:30 PM 83.8°F28.8°C 72.9°F22.7°C 70% 2.9 mph SE4.7 kmh SE 8.0 mph12.9 kmh 29.73 in1006.8 mb 0.00 in0.0 mm 0.00 in0.0 mm 0.00 in0.0 mm
07:35 PM 83.7°F28.7°C 73.7°F23.2°C 72% 1.1 mph SE1.8 kmh SE 5.0 mph8.0 kmh 29.73 in1006.8 mb 0.00 in0.0 mm 0.00 in0.0 mm 0.00 in0.0 mm
07:40 PM 83.8°F28.8°C 73.8°F23.2°C 72% 0.3 mph E0.5 kmh E 3.0 mph4.8 kmh 29.74 in1007.1 mb 0.00 in0.0 mm 0.00 in0.0 mm 0.00 in0.0 mm
07:45 PM 83.5°F28.6°C 73.1°F22.8°C 71% 2.1 mph NNE3.4 kmh NNE 8.0 mph12.9 kmh 29.76 in1007.8 mb 0.00 in0.0 mm 0.00 in0.0 mm 0.00 in0.0 mm
07:50 PM 80.1°F26.7°C 64.5°F18.1°C 59% 5.1 mph NE8.2 kmh NE 12.0 mph19.3 kmh 29.76 in1007.8 mb 0.00 in0.0 mm 0.00 in0.0 mm 0.00 in0.0 mm
07:55 PM 78.0°F25.6°C 63.4°F17.4°C 61% 4.3 mph N6.9 kmh N 14.0 mph22.5 kmh 29.77 in1008.1 mb 0.00 in0.0 mm 0.00 in0.0 mm 0.00 in0.0 mm
08:00 PM 77.0°F25.0°C 63.4°F17.4°C 63% 4.5 mph N7.2 kmh N 14.0 mph22.5 kmh 29.78 in1008.5 mb 0.00 in0.0 mm 0.00 in0.0 mm 0.00 in0.0 mm
08:05 PM 76.1°F24.5°C 64.3°F17.9°C 67% 3.9 mph N6.3 kmh N 12.0 mph19.3 kmh 29.81 in1009.5 mb 0.00 in0.0 mm 0.00 in0.0 mm 0.00 in0.0 mm
08:10 PM 74.4°F23.6°C 64.8°F18.2°C 72% 3.6 mph N5.8 kmh N 12.0 mph19.3 kmh 29.81 in1009.5 mb 0.10 in2.5 mm 1.20 in30.5 mm 0.10 in2.5 mm
08:15 PM 72.0°F22.2°C 64.0°F17.8°C 76% 4.2 mph NW6.8 kmh NW 14.0 mph22.5 kmh 29.85 in1010.8 mb 0.26 in6.6 mm 1.92 in48.8 mm 0.26 in6.6 mm
08:20 PM 70.7°F21.5°C 64.6°F18.1°C 81% 2.9 mph NW4.7 kmh NW 14.0 mph22.5 kmh 29.87 in1011.5 mb 0.53 in13.5 mm 3.24 in82.3 mm 0.53 in13.5 mm
08:25 PM 69.9°F21.1°C 64.5°F18.1°C 83% 3.5 mph NNE5.6 kmh NNE 12.0 mph19.3 kmh 29.86 in1011.2 mb 0.60 in15.2 mm 0.84 in21.3 mm 0.60 in15.2 mm
08:30 PM 69.2°F20.7°C 65.2°F18.4°C 87% 7.0 mph NW11.3 kmh NW 16.0 mph25.7 kmh 29.88 in1011.9 mb 0.65 in16.5 mm 0.60 in15.2 mm 0.65 in16.5 mm
08:35 PM 68.5°F20.3°C 64.5°F18.1°C 87% 6.1 mph NW9.8 kmh NW 16.0 mph25.7 kmh 29.89 in1012.2 mb 0.65 in16.5 mm 0.00 in0.0 mm 0.65 in16.5 mm
08:40 PM 67.9°F19.9°C 63.9°F17.7°C 87% 6.7 mph NW10.8 kmh NW 16.0 mph25.7 kmh 29.89 in1012.2 mb 0.65 in16.5 mm 0.00 in0.0 mm 0.65 in16.5 mm
08:45 PM 67.7°F19.8°C 64.0°F17.8°C 88% 5.9 mph NW9.5 kmh NW 16.0 mph25.7 kmh 29.91 in1012.9 mb 0.67 in17.0 mm 0.24 in6.1 mm 0.67 in17.0 mm
08:50 PM 67.6°F19.8°C 64.2°F17.9°C 89% 4.3 mph NW6.9 kmh NW 15.0 mph24.1 kmh 29.89 in1012.2 mb 0.71 in18.0 mm 0.48 in12.2 mm 0.71 in18.0 mm
08:55 PM 67.7°F19.8°C 64.3°F17.9°C 89% 6.3 mph NW10.1 kmh NW 15.0 mph24.1 kmh 29.88 in1011.9 mb 0.78 in19.8 mm 0.84 in21.3 mm 0.78 in19.8 mm
09:00 PM 67.7°F19.8°C 64.3°F17.9°C 89% 5.1 mph NW8.2 kmh NW 13.0 mph20.9 kmh 29.86 in1011.2 mb 0.80 in20.3 mm 0.02 in0.5 mm 0.80 in20.3 mm
09:05 PM 67.7°F19.8°C 64.3°F17.9°C 89% 4.6 mph NW7.4 kmh NW 13.0 mph20.9 kmh 29.89 in1012.2 mb 0.81 in20.6 mm 0.12 in3.0 mm 0.81 in20.6 mm
09:10 PM 67.7°F19.8°C 64.3°F17.9°C 89% 0.9 mph NNE1.4 kmh NNE 10.0 mph16.1 kmh 29.88 in1011.9 mb 0.74 in18.8 mm 0.00 in0.0 mm 0.84 in21.3 mm
09:15 PM 67.7°F19.8°C 64.3°F17.9°C 89% 1.0 mph N1.6 kmh N 4.0 mph6.4 kmh 29.88 in1011.9 mb 0.60 in15.2 mm 0.00 in0.0 mm 0.86 in21.8 mm
09:20 PM 67.6°F19.8°C 64.6°F18.1°C 90% 0.2 mph NNE0.3 kmh NNE 3.0 mph4.8 kmh 29.88 in1011.9 mb 0.34 in8.6 mm 0.00 in0.0 mm 0.87 in22.1 mm
09:25 PM 67.6°F19.8°C 64.6°F18.1°C 90% 0.6 mph ESE1.0 kmh ESE 2.0 mph3.2 kmh 29.88 in1011.9 mb 0.27 in6.9 mm 0.00 in0.0 mm 0.87 in22.1 mm
09:30 PM 67.8°F19.9°C 64.8°F18.2°C 90% 0.6 mph SE1.0 kmh SE 2.0 mph3.2 kmh 29.87 in1011.5 mb 0.22 in5.6 mm 0.00 in0.0 mm 0.87 in22.1 mm
09:35 PM 67.9°F19.9°C 64.9°F18.3°C 90% 1.4 mph SE2.3 kmh SE 3.0 mph4.8 kmh 29.87 in1011.5 mb 0.23 in5.8 mm 0.12 in3.0 mm 0.88 in22.4 mm
09:40 PM 67.9°F19.9°C 64.9°F18.3°C 90% 1.5 mph ESE2.4 kmh ESE 4.0 mph6.4 kmh 29.87 in1011.5 mb 0.23 in5.8 mm 0.00 in0.0 mm 0.88 in22.4 mm
09:45 PM 67.9°F19.9°C 65.2°F18.4°C 91% 4.0 mph SE6.4 kmh SE 7.0 mph11.3 kmh 29.83 in1010.2 mb 0.22 in5.6 mm 0.00 in0.0 mm 0.89 in22.6 mm
09:50 PM 67.9°F19.9°C 65.2°F18.4°C 91% 4.7 mph SE7.6 kmh SE 9.0 mph14.5 kmh 29.80 in1009.1 mb 0.18 in4.6 mm 0.00 in0.0 mm 0.89 in22.6 mm
09:55 PM 68.0°F20.0°C 65.3°F18.5°C 91% 6.1 mph SE9.8 kmh SE 9.0 mph14.5 kmh 29.79 in1008.8 mb 0.11 in2.8 mm 0.00 in0.0 mm 0.89 in22.6 mm
10:00 PM 68.3°F20.2°C 65.6°F18.7°C 91% 7.4 mph SE11.9 kmh SE 15.0 mph24.1 kmh 29.79 in1008.8 mb 0.09 in2.3 mm 0.00 in0.0 mm 0.89 in22.6 mm
10:05 PM 68.4°F20.2°C 65.3°F18.5°C 90% 5.2 mph SE8.4 kmh SE 15.0 mph24.1 kmh 29.82 in1009.8 mb 0.08 in2.0 mm 0.00 in0.0 mm 0.89 in22.6 mm
10:10 PM 68.7°F20.4°C 65.6°F18.7°C 90% 3.0 mph ESE4.8 kmh ESE 11.0 mph17.7 kmh 29.86 in1011.2 mb 0.05 in1.3 mm 0.00 in0.0 mm 0.89 in22.6 mm
10:15 PM 68.9°F20.5°C 65.5°F18.6°C 89% 5.2 mph SE8.4 kmh SE 10.0 mph16.1 kmh 29.86 in1011.2 mb 0.03 in0.8 mm 0.00 in0.0 mm 0.89 in22.6 mm
10:20 PM 68.9°F20.5°C 65.5°F18.6°C 89% 5.3 mph SE8.5 kmh SE 10.0 mph16.1 kmh 29.86 in1011.2 mb 0.02 in0.5 mm 0.00 in0.0 mm 0.89 in22.6 mm
10:25 PM 68.9°F20.5°C 65.8°F18.8°C 90% 3.4 mph ESE5.5 kmh ESE 10.0 mph16.1 kmh 29.85 in1010.8 mb 0.02 in0.5 mm 0.00 in0.0 mm 0.89 in22.6 mm
10:30 PM 68.9°F20.5°C 65.8°F18.8°C 90% 6.4 mph SE10.3 kmh SE 13.0 mph20.9 kmh 29.85 in1010.8 mb 0.02 in0.5 mm 0.00 in0.0 mm 0.89 in22.6 mm
10:35 PM 68.8°F20.4°C 65.4°F18.6°C 89% 5.4 mph SE8.7 kmh SE 13.0 mph20.9 kmh 29.85 in1010.8 mb 0.02 in0.5 mm 0.00 in0.0 mm 0.90 in22.9 mm
10:40 PM 69.0°F20.6°C 65.0°F18.3°C 87% 7.0 mph ESE11.3 kmh ESE 14.0 mph22.5 kmh 29.84 in1010.5 mb 0.02 in0.5 mm 0.00 in0.0 mm 0.90 in22.9 mm
10:45 PM 68.9°F20.5°C 65.2°F18.4°C 88% 4.5 mph ESE7.2 kmh ESE 14.0 mph22.5 kmh 29.81 in1009.5 mb 0.01 in0.3 mm 0.00 in0.0 mm 0.90 in22.9 mm
10:50 PM 68.8°F20.4°C 65.1°F18.4°C 88% 6.5 mph SE10.5 kmh SE 11.0 mph17.7 kmh 29.78 in1008.5 mb 0.01 in0.3 mm 0.00 in0.0 mm 0.90 in22.9 mm
10:55 PM 69.0°F20.6°C 65.3°F18.5°C 88% 8.4 mph SE13.5 kmh SE 15.0 mph24.1 kmh 29.78 in1008.5 mb 0.01 in0.3 mm 0.00 in0.0 mm 0.90 in22.9 mm
11:00 PM 68.9°F20.5°C 65.2°F18.4°C 88% 1.5 mph SW2.4 kmh SW 15.0 mph24.1 kmh 29.85 in1010.8 mb 0.01 in0.3 mm 0.00 in0.0 mm 0.82 in20.8 mm
11:05 PM 69.0°F20.6°C 65.3°F18.5°C 88% 0.7 mph E1.1 kmh E 6.0 mph9.7 kmh 29.85 in1010.8 mb 0.01 in0.3 mm 0.00 in0.0 mm 0.82 in20.8 mm
11:10 PM 68.9°F20.5°C 65.5°F18.6°C 89% 1.0 mph SSE1.6 kmh SSE 5.0 mph8.0 kmh 29.88 in1011.9 mb 0.01 in0.3 mm 0.00 in0.0 mm 0.82 in20.8 mm
11:15 PM 68.9°F20.5°C 65.2°F18.4°C 88% 6.8 mph SE10.9 kmh SE 11.0 mph17.7 kmh 29.83 in1010.2 mb 0.01 in0.3 mm 0.00 in0.0 mm 0.82 in20.8 mm
11:20 PM 68.8°F20.4°C 65.1°F18.4°C 88% 7.5 mph SE12.1 kmh SE 15.0 mph24.1 kmh 29.82 in1009.8 mb 0.01 in0.3 mm 0.00 in0.0 mm 0.82 in20.8 mm
11:25 PM 68.7°F20.4°C 65.0°F18.3°C 88% 4.2 mph ESE6.8 kmh ESE 15.0 mph24.1 kmh 29.84 in1010.5 mb 0.01 in0.3 mm 0.00 in0.0 mm 0.82 in20.8 mm
11:30 PM 68.7°F20.4°C 65.3°F18.5°C 89% 1.4 mph ESE2.3 kmh ESE 12.0 mph19.3 kmh 29.84 in1010.5 mb 0.01 in0.3 mm 0.00 in0.0 mm 0.82 in20.8 mm
11:35 PM 68.7°F20.4°C 65.3°F18.5°C 89% 2.8 mph SE4.5 kmh SE 6.0 mph9.7 kmh 29.85 in1010.8 mb 0.00 in0.0 mm 0.00 in0.0 mm 0.82 in20.8 mm
11:40 PM 68.6°F20.3°C 65.2°F18.4°C 89% 2.3 mph ESE3.7 kmh ESE 7.0 mph11.3 kmh 29.85 in1010.8 mb 0.00 in0.0 mm 0.00 in0.0 mm 0.82 in20.8 mm
11:45 PM 68.6°F20.3°C 65.2°F18.4°C 89% 5.4 mph SE8.7 kmh SE 10.0 mph16.1 kmh 29.83 in1010.2 mb 0.00 in0.0 mm 0.00 in0.0 mm 0.82 in20.8 mm
11:50 PM 68.6°F20.3°C 65.2°F18.4°C 89% 2.2 mph SE3.5 kmh SE 10.0 mph16.1 kmh 29.83 in1010.2 mb 0.00 in0.0 mm 0.00 in0.0 mm 0.82 in20.8 mm
11:55 PM 68.7°F20.4°C 65.3°F18.5°C 89% 1.0 mph W1.6 kmh W 3.0 mph4.8 kmh 29.85 in1010.8 mb 0.00 in0.0 mm 0.00 in0.0 mm 0.82 in20.8 mm